Quantico, Virginia
Current Conditions -  °F | °C
As of 2:56 AM on Wednesday 26 Nov 2014 (Local Time) from KNYG Reporting Station
Light Rain Light Rain  
Wind Chill: 47°   Ceiling: 6000
Heat Index: 47°   Visibility: 10mi
Dew Point: 41°   Wind: 3mph
Humidity: 80%   Direction: 330°NNW
Pressure: 30.09"   Gusts: NA
Location:  38.52°N, 77.29°W
Report Text: KNYG 260756Z AUTO 33003KT 10SM -RA BKN060 OVC070 08/05 A3009 RMK AO2 SLP192 P0001 T00830050 $
Loading
Personal Weather Stations






























Interactive Weather Map New forecast layout! Learn more

10-Day Weather Forecast

Advertisements
Track Severe Weather on mobile